New Jersey Responder — WBO8578 — position and weather

sailwx.info

Track history (hours):
 
Tides and Currents Weather Stations Pressure Air Temp Water Temp Dewpoint Dewpoint Depression Visibility Wind Speed Wind Dir Waves Ship Positions

New Jersey Responder

Owner: MARINE SPILL RESPONSE CORP, HERNDON, VA. More information available from US FCC via Universal Licensing System and Coast Guard Vessel Documentation Center.

Last reported at 2015-May-30 03:28 UTC. Time now 2015-May-30 04:34 UTC.
Position N 40°32' W 074°15'.

; draft 4 m.

Type: Pollution control. MMSI: 366594000.

Date/timePositionNaut miles runAvg speedWind from/ knotsBaromVisibWave heightAir tempDewpointWater temp
2015-May-30 03:28N 40°32' W 074°15'0 0.0
2015-May-30 02:31N 40°32' W 074°15'0 0.0
2015-May-30 01:28N 40°32' W 074°15'0 0.0
2015-May-30 00:19N 40°32' W 074°15'0 0.0
2015-May-29 21:16N 40°32' W 074°15'0 0.0
2015-May-29 08:28N 40°32' W 074°15'0 0.0
2015-May-29 07:28N 40°32' W 074°15'0 0.0
2015-May-28 18:25N 40°32' W 074°15'0 0.0
2015-May-28 16:31N 40°32' W 074°15'0 0.0
2015-May-28 15:31N 40°32' W 074°15'0 0.0
2015-May-28 14:28N 40°32' W 074°15'0 0.0
2015-May-28 12:13N 40°32' W 074°15'0 0.0
2015-May-28 11:13N 40°32' W 074°15'0 0.0
2015-May-28 10:28N 40°32' W 074°15'0 0.0
2015-May-28 09:28N 40°32' W 074°15'0 0.0
2015-May-28 07:25N 40°32' W 074°15'0 0.0
2015-May-28 05:07N 40°32' W 074°15'0 0.0
2015-May-28 04:28N 40°32' W 074°15'0 0.0
2015-May-27 22:19N 40°32' W 074°15'0 0.0
2015-May-27 21:07N 40°32' W 074°15'0 0.0
2015-May-27 18:04N 40°32' W 074°15'0 0.0
2015-May-27 17:31N 40°32' W 074°15'0 0.0
2015-May-27 16:31N 40°32' W 074°15'0 0.0
2015-May-27 15:22N 40°32' W 074°15'0 0.0
2015-May-27 13:31N 40°32' W 074°15'0 0.0
2015-May-27 12:31N 40°32' W 074°15'0 0.0
2015-May-27 11:22N 40°32' W 074°15'0 0.0
2015-May-27 10:16N 40°32' W 074°15'0 0.0
2015-May-27 09:31N 40°32' W 074°15'0 0.0
2015-May-27 08:22N 40°32' W 074°15'0 0.0
2015-May-27 07:22N 40°32' W 074°15'0 0.0
2015-May-27 06:19N 40°32' W 074°15'0 0.0
2015-May-27 05:22N 40°32' W 074°15'0 0.0
2015-May-27 03:13N 40°32' W 074°15'0 0.0
2015-May-27 02:13N 40°32' W 074°15'0 0.0
2015-May-27 01:31N 40°32' W 074°15'0 0.0
2015-May-27 00:10N 40°32' W 074°15'0 0.0
2015-May-26 23:19N 40°32' W 074°15'0 0.0
2015-May-26 22:28N 40°32' W 074°15'0 0.0
2015-May-26 20:22N 40°32' W 074°15'0 0.0
2015-May-26 19:31N 40°32' W 074°15'0 0.0
2015-May-26 16:19N 40°32' W 074°15'0 0.0
2015-May-26 15:31N 40°32' W 074°15'0 0.0
2015-May-26 14:04N 40°32' W 074°15'0 0.0
2015-May-26 13:19N 40°32' W 074°15'0 0.0
2015-May-26 09:25N 40°32' W 074°15'0 0.0
2015-May-26 07:10N 40°32' W 074°15'0 0.0
2015-May-26 03:04N 40°32' W 074°15'0 0.0
2015-May-26 00:16N 40°32' W 074°15'0 0.0
2015-May-25 17:16N 40°32' W 074°15'0 0.0
2015-May-25 16:19N 40°32' W 074°15'0 0.0
2015-May-25 04:13N 40°32' W 074°15'0 0.0
2015-May-24 23:13N 40°32' W 074°15'0 0.0
2015-May-24 09:29N 40°32' W 074°15'0 0.0
2015-May-24 08:13N 40°32' W 074°15'0 0.0
2015-May-24 07:23N 40°32' W 074°15'0 0.0
2015-May-24 06:27N 40°32' W 074°15'0 0.0
2015-May-24 05:26N 40°32' W 074°15'0 0.0
2015-May-24 04:31N 40°32' W 074°15'0 0.0
2015-May-24 03:31N 40°32' W 074°15'0 0.0
2015-May-24 02:31N 40°32' W 074°15'0 0.0
2015-May-24 01:31N 40°32' W 074°15'0 0.0
2015-May-24 00:22N 40°32' W 074°15'0 0.0
2015-May-23 21:16N 40°32' W 074°15'0 0.0
2015-May-23 02:10N 40°32' W 074°15'0 0.0
2015-May-22 16:04N 40°32' W 074°15'0 0.0
2015-May-22 09:18N 40°32' W 074°15'0 0.0
2015-May-22 02:15N 40°32' W 074°15'2 0.3
2015-May-21 19:05N 40°30' W 074°15'5 5.5
2015-May-21 18:07N 40°30' W 074°08'2 2.3
2015-May-21 17:16N 40°30' W 074°06'0 0.6
2015-May-21 16:33N 40°30' W 074°06'1 0.7
2015-May-21 15:13N 40°30' W 074°08'0 0.1
2015-May-21 14:26N 40°30' W 074°08'0 0.3
2015-May-21 13:07N 40°30' W 074°08'6 1.9
2015-May-21 10:16N 40°32' W 074°15'0 0.0
2015-May-21 09:10N 40°32' W 074°15'0 0.0
2015-May-21 08:28N 40°32' W 074°15'0 0.0
2015-May-21 07:14N 40°32' W 074°15'0 0.0
2015-May-21 06:20N 40°32' W 074°15'0 0.0
2015-May-21 05:13N 40°32' W 074°15'0 0.0
2015-May-21 04:07N 40°32' W 074°15'0 0.0
2015-May-21 03:24N 40°32' W 074°15'0 0.0
2015-May-21 02:32N 40°32' W 074°15'0 0.0
2015-May-21 01:33N 40°32' W 074°15'0 0.0
2015-May-21 00:26N 40°32' W 074°15'0 0.0
2015-May-20 23:24N 40°32' W 074°15'0 0.0
2015-May-20 22:22N 40°32' W 074°15'0 0.0
2015-May-20 21:07N 40°32' W 074°15'0 0.0
2015-May-20 20:19N 40°32' W 074°15'0 0.0
2015-May-20 19:31N 40°32' W 074°15'0 0.0
2015-May-20 18:32N 40°32' W 074°15'0 0.0
2015-May-20 17:24N 40°32' W 074°15'0 0.0
2015-May-20 16:15N 40°32' W 074°15'0 0.0
2015-May-20 15:06N 40°32' W 074°15'0 0.0
2015-May-20 14:31N 40°32' W 074°15'0 0.0
2015-May-20 10:25N 40°32' W 074°15'0 0.0
2015-May-20 08:03N 40°32' W 074°15'0 0.0
2015-May-20 07:26N 40°32' W 074°15'0 0.0
2015-May-20 06:33N 40°32' W 074°15'0 0.0
2015-May-20 05:19N 40°32' W 074°15'0 0.0
2015-May-20 04:22N 40°32' W 074°15'0 0.0
2015-May-20 03:30N 40°32' W 074°15'  
Track history (hours):
 
Tides and Currents Weather Stations Pressure Air Temp Water Temp Dewpoint Dewpoint Depression Visibility Wind Speed Wind Dir Waves Ship Positions

New Jersey Responder

Owner: MARINE SPILL RESPONSE CORP, HERNDON, VA. More information available from US FCC via Universal Licensing System and Coast Guard Vessel Documentation Center.

Last reported at 2015-May-30 03:28 UTC. Time now 2015-May-30 04:34 UTC.
Position N 40°32' W 074°15'.

; draft 4 m.

Type: Pollution control. MMSI: 366594000.

Date/timePositionNaut miles runAvg speedWind from/ knotsBaromVisibWave heightAir tempDewpointWater temp
2015-May-30 03:28N 40°32' W 074°15'0 0.0
2015-May-30 02:31N 40°32' W 074°15'0 0.0
2015-May-30 01:28N 40°32' W 074°15'0 0.0
2015-May-30 00:19N 40°32' W 074°15'0 0.0
2015-May-29 21:16N 40°32' W 074°15'0 0.0
2015-May-29 08:28N 40°32' W 074°15'0 0.0
2015-May-29 07:28N 40°32' W 074°15'0 0.0
2015-May-28 18:25N 40°32' W 074°15'0 0.0
2015-May-28 16:31N 40°32' W 074°15'0 0.0
2015-May-28 15:31N 40°32' W 074°15'0 0.0
2015-May-28 14:28N 40°32' W 074°15'0 0.0
2015-May-28 12:13N 40°32' W 074°15'0 0.0
2015-May-28 11:13N 40°32' W 074°15'0 0.0
2015-May-28 10:28N 40°32' W 074°15'0 0.0
2015-May-28 09:28N 40°32' W 074°15'0 0.0
2015-May-28 07:25N 40°32' W 074°15'0 0.0
2015-May-28 05:07N 40°32' W 074°15'0 0.0
2015-May-28 04:28N 40°32' W 074°15'0 0.0
2015-May-27 22:19N 40°32' W 074°15'0 0.0
2015-May-27 21:07N 40°32' W 074°15'0 0.0
2015-May-27 18:04N 40°32' W 074°15'0 0.0
2015-May-27 17:31N 40°32' W 074°15'0 0.0
2015-May-27 16:31N 40°32' W 074°15'0 0.0
2015-May-27 15:22N 40°32' W 074°15'0 0.0
2015-May-27 13:31N 40°32' W 074°15'0 0.0
2015-May-27 12:31N 40°32' W 074°15'0 0.0
2015-May-27 11:22N 40°32' W 074°15'0 0.0
2015-May-27 10:16N 40°32' W 074°15'0 0.0
2015-May-27 09:31N 40°32' W 074°15'0 0.0
2015-May-27 08:22N 40°32' W 074°15'0 0.0
2015-May-27 07:22N 40°32' W 074°15'0 0.0
2015-May-27 06:19N 40°32' W 074°15'0 0.0
2015-May-27 05:22N 40°32' W 074°15'0 0.0
2015-May-27 03:13N 40°32' W 074°15'0 0.0
2015-May-27 02:13N 40°32' W 074°15'0 0.0
2015-May-27 01:31N 40°32' W 074°15'0 0.0
2015-May-27 00:10N 40°32' W 074°15'0 0.0
2015-May-26 23:19N 40°32' W 074°15'0 0.0
2015-May-26 22:28N 40°32' W 074°15'0 0.0
2015-May-26 20:22N 40°32' W 074°15'0 0.0
2015-May-26 19:31N 40°32' W 074°15'0 0.0
2015-May-26 16:19N 40°32' W 074°15'0 0.0
2015-May-26 15:31N 40°32' W 074°15'0 0.0
2015-May-26 14:04N 40°32' W 074°15'0 0.0
2015-May-26 13:19N 40°32' W 074°15'0 0.0
2015-May-26 09:25N 40°32' W 074°15'0 0.0
2015-May-26 07:10N 40°32' W 074°15'0 0.0
2015-May-26 03:04N 40°32' W 074°15'0 0.0
2015-May-26 00:16N 40°32' W 074°15'0 0.0
2015-May-25 17:16N 40°32' W 074°15'0 0.0
2015-May-25 16:19N 40°32' W 074°15'0 0.0
2015-May-25 04:13N 40°32' W 074°15'0 0.0
2015-May-24 23:13N 40°32' W 074°15'0 0.0
2015-May-24 09:29N 40°32' W 074°15'0 0.0
2015-May-24 08:13N 40°32' W 074°15'0 0.0
2015-May-24 07:23N 40°32' W 074°15'0 0.0
2015-May-24 06:27N 40°32' W 074°15'0 0.0
2015-May-24 05:26N 40°32' W 074°15'0 0.0
2015-May-24 04:31N 40°32' W 074°15'0 0.0
2015-May-24 03:31N 40°32' W 074°15'0 0.0
2015-May-24 02:31N 40°32' W 074°15'0 0.0
2015-May-24 01:31N 40°32' W 074°15'0 0.0
2015-May-24 00:22N 40°32' W 074°15'0 0.0
2015-May-23 21:16N 40°32' W 074°15'0 0.0
2015-May-23 02:10N 40°32' W 074°15'0 0.0
2015-May-22 16:04N 40°32' W 074°15'0 0.0
2015-May-22 09:18N 40°32' W 074°15'0 0.0
2015-May-22 02:15N 40°32' W 074°15'2 0.3
2015-May-21 19:05N 40°30' W 074°15'5 5.5
2015-May-21 18:07N 40°30' W 074°08'2 2.3
2015-May-21 17:16N 40°30' W 074°06'0 0.6
2015-May-21 16:33N 40°30' W 074°06'1 0.7
2015-May-21 15:13N 40°30' W 074°08'0 0.1
2015-May-21 14:26N 40°30' W 074°08'0 0.3
2015-May-21 13:07N 40°30' W 074°08'6 1.9
2015-May-21 10:16N 40°32' W 074°15'0 0.0
2015-May-21 09:10N 40°32' W 074°15'0 0.0
2015-May-21 08:28N 40°32' W 074°15'0 0.0
2015-May-21 07:14N 40°32' W 074°15'0 0.0
2015-May-21 06:20N 40°32' W 074°15'0 0.0
2015-May-21 05:13N 40°32' W 074°15'0 0.0
2015-May-21 04:07N 40°32' W 074°15'0 0.0
2015-May-21 03:24N 40°32' W 074°15'0 0.0
2015-May-21 02:32N 40°32' W 074°15'0 0.0
2015-May-21 01:33N 40°32' W 074°15'0 0.0
2015-May-21 00:26N 40°32' W 074°15'0 0.0
2015-May-20 23:24N 40°32' W 074°15'0 0.0
2015-May-20 22:22N 40°32' W 074°15'0 0.0
2015-May-20 21:07N 40°32' W 074°15'0 0.0
2015-May-20 20:19N 40°32' W 074°15'0 0.0
2015-May-20 19:31N 40°32' W 074°15'0 0.0
2015-May-20 18:32N 40°32' W 074°15'0 0.0
2015-May-20 17:24N 40°32' W 074°15'0 0.0
2015-May-20 16:15N 40°32' W 074°15'0 0.0
2015-May-20 15:06N 40°32' W 074°15'0 0.0
2015-May-20 14:31N 40°32' W 074°15'0 0.0
2015-May-20 10:25N 40°32' W 074°15'0 0.0
2015-May-20 08:03N 40°32' W 074°15'0 0.0
2015-May-20 07:26N 40°32' W 074°15'0 0.0
2015-May-20 06:33N 40°32' W 074°15'0 0.0
2015-May-20 05:19N 40°32' W 074°15'0 0.0
2015-May-20 04:22N 40°32' W 074°15'0 0.0
2015-May-20 03:30N 40°32' W 074°15'  

Dump ship's entire track history